createdAt,value
2022-09-15T00:00:27.840Z,16.08
2022-09-15T00:05:29.656Z,10.80
2022-09-15T00:10:31.415Z,18.52
2022-09-15T00:15:33.189Z,19.40
2022-09-15T00:20:35.041Z,22.55
2022-09-15T00:25:49.162Z,13.40
2022-09-15T00:30:52.951Z,6.43
2022-09-15T00:35:55.967Z,14.65
2022-09-15T00:40:59.290Z,12.23
2022-09-15T00:46:01.256Z,12.27
2022-09-15T00:51:04.688Z,9.77
2022-09-15T00:56:08.553Z,12.73
2022-09-15T01:01:11.193Z,14.10
2022-09-15T01:06:18.067Z,9.50
2022-09-15T01:11:20.325Z,13.05
2022-09-15T01:16:55.984Z,8.48
2022-09-15T01:22:26.102Z,13.57
2022-09-15T01:28:04.995Z,11.60
2022-09-15T01:33:26.719Z,12.77
2022-09-15T01:38:49.347Z,10.32
2022-09-15T01:44:02.289Z,12.63
2022-09-15T01:49:07.216Z,12.23
2022-09-15T01:54:10.770Z,11.10
2022-09-15T01:59:12.646Z,9.68
2022-09-15T02:04:22.898Z,13.30
2022-09-15T02:09:54.649Z,19.38
2022-09-15T02:15:07.924Z,13.23
2022-09-15T02:20:34.358Z,18.08
2022-09-15T02:25:45.903Z,11.02
2022-09-15T02:30:49.407Z,11.88
2022-09-15T02:35:52.813Z,13.52
2022-09-15T02:40:54.700Z,11.65
2022-09-15T02:45:56.610Z,18.27
2022-09-15T02:50:58.695Z,13.63
2022-09-15T02:56:00.531Z,17.02
2022-09-15T03:01:07.597Z,18.88
2022-09-15T03:06:21.134Z,12.27
2022-09-15T03:11:26.707Z,15.13
2022-09-15T03:16:31.097Z,14.73
2022-09-15T03:21:32.991Z,20.33
2022-09-15T03:26:34.751Z,12.98
2022-09-15T03:31:36.511Z,16.35
2022-09-15T03:36:38.540Z,23.55
2022-09-15T03:41:40.307Z,18.42
2022-09-15T03:46:42.110Z,22.17
2022-09-15T03:51:44.569Z,19.77
2022-09-15T03:56:49.119Z,33.08
2022-09-15T04:01:51.169Z,20.20
2022-09-15T04:06:53.235Z,16.55
2022-09-15T04:11:54.974Z,19.63
2022-09-15T04:16:56.700Z,20.45
2022-09-15T04:21:58.536Z,17.50
2022-09-15T04:27:00.258Z,18.42
2022-09-15T04:32:02.267Z,18.20
2022-09-15T04:37:04.075Z,18.73
2022-09-15T04:42:07.923Z,19.38
2022-09-15T04:47:09.745Z,22.38
2022-09-15T04:52:11.702Z,14.95
2022-09-15T04:57:13.580Z,16.92
2022-09-15T05:02:15.571Z,13.82
2022-09-15T05:07:18.624Z,18.10
2022-09-15T05:12:20.334Z,16.92
2022-09-15T05:17:26.103Z,18.15
2022-09-15T05:22:28.516Z,12.85
2022-09-15T05:27:33.939Z,15.75
2022-09-15T05:32:35.722Z,19.90
2022-09-15T05:37:37.440Z,17.75
2022-09-15T05:42:39.261Z,20.98
2022-09-15T05:47:41.122Z,21.70
2022-09-15T05:52:43.087Z,14.13
2022-09-15T05:57:44.779Z,16.70
2022-09-15T06:02:46.544Z,16.02
2022-09-15T06:07:48.319Z,11.73
2022-09-15T06:12:50.692Z,17.60
2022-09-15T06:17:52.468Z,8.48
2022-09-15T06:22:55.587Z,17.17
2022-09-15T06:27:58.112Z,19.92
2022-09-15T06:32:59.824Z,10.90
2022-09-15T06:38:01.615Z,12.65
2022-09-15T06:43:04.245Z,6.55
2022-09-15T06:48:23.378Z,9.43
2022-09-15T06:53:29.621Z,8.05
2022-09-15T06:58:32.175Z,8.75
2022-09-15T07:03:34.017Z,8.55
2022-09-15T07:08:35.899Z,9.10
2022-09-15T07:13:38.377Z,12.75
2022-09-15T07:18:43.187Z,7.60
2022-09-15T07:23:46.043Z,6.93
2022-09-15T07:28:50.820Z,10.82
2022-09-15T07:33:53.405Z,10.82
2022-09-15T07:38:55.471Z,9.32
2022-09-15T07:43:59.411Z,5.63
2022-09-15T07:49:03.052Z,14.35
2022-09-15T07:54:05.036Z,9.20
2022-09-15T07:59:07.989Z,21.50
2022-09-15T08:04:09.924Z,9.00
2022-09-15T08:09:14.908Z,6.38
2022-09-15T08:14:16.749Z,7.47
2022-09-15T08:19:19.668Z,11.98
2022-09-15T08:24:22.744Z,16.17
2022-09-15T08:29:24.500Z,6.55
2022-09-15T08:34:27.643Z,9.70
2022-09-15T08:39:29.370Z,10.02
2022-09-15T08:44:49.599Z,10.48
2022-09-15T08:50:08.034Z,8.43
2022-09-15T08:55:19.061Z,9.85
2022-09-15T09:00:20.927Z,8.88
2022-09-15T09:05:34.417Z,10.60
2022-09-15T09:10:39.227Z,8.18
2022-09-15T09:15:46.624Z,6.47
2022-09-15T09:21:03.323Z,4.43
2022-09-15T09:26:10.376Z,6.88
2022-09-15T09:31:18.978Z,7.93
2022-09-15T09:36:21.231Z,6.50
2022-09-15T09:41:35.621Z,6.70
2022-09-15T09:46:37.679Z,7.03
2022-09-15T09:51:53.841Z,6.03
2022-09-15T09:57:11.414Z,6.05
2022-09-15T10:02:24.906Z,7.38
2022-09-15T10:07:27.123Z,6.93
2022-09-15T10:12:38.467Z,5.82
2022-09-15T10:17:45.634Z,4.70
2022-09-15T10:22:47.696Z,7.28
2022-09-15T10:28:01.649Z,7.55
2022-09-15T10:33:29.991Z,6.50
2022-09-15T10:38:35.102Z,5.53
2022-09-15T10:43:39.598Z,6.40
2022-09-15T10:48:58.244Z,7.55
2022-09-15T10:54:20.201Z,10.20
2022-09-15T10:59:43.156Z,8.45
2022-09-15T11:04:50.817Z,11.82
2022-09-15T11:10:35.407Z,8.80
2022-09-15T11:16:16.508Z,6.70
2022-09-15T11:21:42.818Z,7.57
2022-09-15T11:27:17.404Z,7.43
2022-09-15T11:32:26.021Z,5.50
2022-09-15T11:37:37.242Z,13.23
2022-09-15T11:42:44.937Z,13.25
2022-09-15T11:48:12.011Z,19.27
2022-09-15T11:53:33.460Z,8.57
2022-09-15T11:59:07.883Z,5.00
2022-09-15T12:04:18.764Z,6.10
2022-09-15T12:09:21.880Z,3.00
2022-09-15T12:14:35.019Z,4.35
2022-09-15T12:19:43.284Z,11.50
2022-09-15T12:25:01.260Z,9.45
2022-09-15T12:30:04.731Z,8.38
2022-09-15T12:35:18.523Z,12.50
2022-09-15T12:40:42.383Z,6.18
2022-09-15T12:45:58.304Z,8.18
2022-09-15T12:51:04.951Z,5.47
2022-09-15T12:56:10.446Z,4.93
2022-09-15T13:01:27.171Z,9.50
2022-09-15T13:06:30.920Z,6.43
2022-09-15T13:11:38.237Z,8.25
2022-09-15T13:16:46.780Z,6.57
2022-09-15T13:22:11.646Z,5.93
2022-09-15T13:27:18.151Z,3.70
2022-09-15T13:32:33.637Z,4.57
2022-09-15T13:43:40.887Z,5.57
2022-09-15T13:48:49.226Z,5.72
2022-09-15T13:54:14.139Z,2.90
2022-09-15T13:59:18.908Z,6.00
2022-09-15T14:04:27.828Z,8.23
2022-09-15T14:14:35.027Z,3.60
2022-09-15T14:19:38.820Z,6.43
2022-09-15T14:24:40.599Z,6.90
2022-09-15T14:29:43.398Z,8.75
2022-09-15T14:34:45.772Z,6.38
2022-09-15T14:39:56.570Z,5.30
2022-09-15T14:50:33.758Z,7.60
2022-09-15T14:55:56.686Z,8.35
2022-09-15T15:01:11.796Z,7.15
2022-09-15T15:06:28.732Z,7.55
2022-09-15T15:11:35.053Z,8.30
2022-09-15T15:16:36.895Z,8.02
2022-09-15T15:21:38.665Z,4.28
2022-09-15T15:26:43.004Z,5.63
2022-09-15T15:31:44.770Z,6.00
2022-09-15T15:36:46.580Z,5.18
2022-09-15T15:46:52.879Z,5.32
2022-09-15T15:51:55.595Z,12.35
2022-09-15T15:57:20.223Z,4.53
2022-09-15T16:02:23.447Z,9.35
2022-09-15T16:07:29.931Z,11.25
2022-09-15T16:12:35.438Z,8.57
2022-09-15T16:17:37.621Z,6.88
2022-09-15T16:22:40.592Z,4.75
2022-09-15T16:27:42.317Z,7.90
2022-09-15T16:32:44.078Z,8.65
2022-09-15T16:37:45.864Z,5.22
2022-09-15T16:42:48.703Z,6.18
2022-09-15T16:47:50.436Z,6.97
2022-09-15T16:52:52.944Z,3.70
2022-09-15T16:57:54.699Z,6.95
2022-09-15T17:02:56.659Z,13.02
2022-09-15T17:07:58.746Z,7.95
2022-09-15T17:13:01.523Z,7.40
2022-09-15T17:18:03.721Z,10.93
2022-09-15T17:23:27.466Z,7.97
2022-09-15T17:28:31.288Z,7.35
2022-09-15T17:33:33.243Z,5.15
2022-09-15T17:38:35.050Z,6.00
2022-09-15T17:43:37.278Z,7.95
2022-09-15T17:48:39.213Z,15.25
2022-09-15T17:53:41.052Z,32.22
2022-09-15T17:58:43.129Z,10.07
2022-09-15T18:03:45.226Z,7.57
2022-09-15T18:08:47.080Z,6.45
2022-09-15T18:13:48.827Z,7.75
2022-09-15T18:18:50.638Z,5.60
2022-09-15T18:23:52.996Z,8.40
2022-09-15T18:28:54.998Z,9.63
2022-09-15T18:33:56.909Z,12.35
2022-09-15T18:38:58.642Z,6.03
2022-09-15T18:44:00.419Z,7.43
2022-09-15T18:49:03.540Z,7.60
2022-09-15T18:54:05.520Z,5.82
2022-09-15T18:59:07.256Z,16.88
2022-09-15T19:04:09.008Z,9.68
2022-09-15T19:09:11.011Z,7.35
2022-09-15T19:14:12.738Z,6.07
2022-09-15T19:19:14.623Z,10.93
2022-09-15T19:24:17.688Z,6.25
2022-09-15T19:29:19.428Z,7.03
2022-09-15T19:34:21.759Z,8.55
2022-09-15T19:39:23.536Z,9.95
2022-09-15T19:44:25.372Z,7.03
2022-09-15T19:49:27.368Z,7.05
2022-09-15T19:54:30.303Z,7.97
2022-09-15T19:59:32.274Z,6.45
2022-09-15T20:04:34.132Z,5.78
2022-09-15T20:09:36.241Z,9.23
2022-09-15T20:14:38.051Z,9.85
2022-09-15T20:19:39.905Z,8.32
2022-09-15T20:24:41.621Z,9.90
2022-09-15T20:29:43.358Z,5.25
2022-09-15T20:34:45.071Z,7.20
2022-09-15T20:39:47.705Z,9.63
2022-09-15T20:44:49.499Z,7.80
2022-09-15T20:49:51.316Z,8.10
2022-09-15T20:54:53.063Z,5.80
2022-09-15T20:59:54.799Z,4.53
2022-09-15T21:04:56.644Z,10.98
2022-09-15T21:09:58.423Z,4.80
2022-09-15T21:15:00.859Z,10.07
2022-09-15T21:20:03.172Z,7.70
2022-09-15T21:25:05.317Z,7.65
2022-09-15T21:30:07.587Z,6.65
2022-09-15T21:35:09.931Z,12.50
2022-09-15T21:40:13.106Z,7.45
2022-09-15T21:45:14.920Z,7.68
2022-09-15T21:50:16.743Z,8.77
2022-09-15T21:55:18.479Z,7.20
2022-09-15T22:00:20.270Z,11.95
2022-09-15T22:05:22.015Z,10.50
2022-09-15T22:10:25.272Z,6.35
2022-09-15T22:15:27.017Z,9.35
2022-09-15T22:20:29.604Z,7.72
2022-09-15T22:25:33.141Z,8.50
2022-09-15T22:30:34.860Z,7.20
2022-09-15T22:35:36.693Z,9.40
2022-09-15T22:40:38.468Z,10.35
2022-09-15T22:45:40.354Z,11.23
2022-09-15T22:50:45.304Z,5.90
2022-09-15T22:55:47.102Z,10.93
2022-09-15T23:00:49.250Z,8.60
2022-09-15T23:05:57.525Z,7.13
2022-09-15T23:11:11.422Z,8.77
2022-09-15T23:16:13.200Z,10.52
2022-09-15T23:21:15.354Z,10.38
2022-09-15T23:26:19.975Z,14.65
2022-09-15T23:31:22.199Z,5.63
2022-09-15T23:36:24.057Z,12.20
2022-09-15T23:41:25.841Z,11.70
2022-09-15T23:46:27.640Z,15.05
2022-09-15T23:51:29.393Z,7.70
2022-09-15T23:56:32.125Z,11.40
